Time;durP1;ratioP1;P1;durP2;ratioP2;P2;SDS_P1;SDS_P2;PMS_P1;PMS_P2;Temp;Humidity;BMP_temperature;BMP_pressure;BME280_temperature;BME280_humidity;BME280_pressure;Samples;Min_cycle;Max_cycle;Signal;HPM_P1;HPM_P2
2021/11/24 00:02:26;;;;;;;14.00;8.13;;;;;;;2.44;72.62;99870.53;2619186;54;20042;-69
2021/11/24 00:04:56;;;;;;;11.95;7.45;;;;;;;2.44;72.63;99866.13;2619392;54;20046;-69
2021/11/24 00:07:28;;;;;;;13.50;8.07;;;;;;;2.54;73.08;99871.53;2619608;54;20031;-69
2021/11/24 00:09:58;;;;;;;16.45;7.68;;;;;;;2.64;72.25;99864.66;2620538;54;20031;-69
2021/11/24 00:12:28;;;;;;;13.60;7.28;;;;;;;2.76;72.47;99860.28;2619384;54;20047;-69
2021/11/24 00:14:57;;;;;;;12.38;7.25;;;;;;;2.82;71.93;99872.06;2619873;54;20038;-69
2021/11/24 00:17:27;;;;;;;13.52;8.23;;;;;;;2.89;71.98;99865.38;2619644;46;20574;-69
2021/11/24 00:19:56;;;;;;;15.88;8.40;;;;;;;2.91;72.13;99863.50;2620236;54;20037;-69
2021/11/24 00:22:29;;;;;;;13.35;7.57;;;;;;;2.97;72.12;99858.63;2619434;47;20066;-69
2021/11/24 00:24:59;;;;;;;14.13;7.78;;;;;;;3.01;71.88;99851.38;2619576;51;20038;-69
2021/11/24 00:27:28;;;;;;;11.70;7.47;;;;;;;3.10;71.49;99850.69;2620324;54;20041;-69
2021/11/24 00:29:58;;;;;;;12.85;7.00;;;;;;;3.08;71.66;99849.13;2620320;54;20027;-69
2021/11/24 00:32:28;;;;;;;9.25;6.30;;;;;;;3.07;71.54;99858.75;2619284;47;20042;-69
2021/11/24 00:34:58;;;;;;;11.43;6.97;;;;;;;3.05;71.87;99854.59;2620263;54;20038;-69
2021/11/24 00:37:30;;;;;;;10.50;7.05;;;;;;;3.03;71.81;99843.44;2619879;54;20038;-69
2021/11/24 00:40:04;;;;;;;12.75;7.10;;;;;;;3.10;71.62;99852.44;2619097;54;20045;-69
2021/11/24 00:42:34;;;;;;;12.27;6.60;;;;;;;3.09;71.47;99851.63;2619746;54;20042;-69
2021/11/24 00:45:03;;;;;;;11.52;6.45;;;;;;;3.10;71.43;99852.44;2618810;47;20069;-69
2021/11/24 00:47:33;;;;;;;12.52;6.72;;;;;;;3.15;71.62;99847.72;2620192;39;20444;-69
2021/11/24 00:50:03;;;;;;;10.20;6.32;;;;;;;3.10;71.63;99849.84;2618889;54;20063;-69
2021/11/24 00:52:35;;;;;;;12.48;7.05;;;;;;;3.16;71.89;99844.16;2618537;47;20035;-71
2021/11/24 00:55:05;;;;;;;10.75;7.13;;;;;;;3.21;72.21;99834.97;2619254;54;20038;-70
2021/11/24 00:57:35;;;;;;;8.30;5.95;;;;;;;3.12;71.88;99842.72;2619096;54;20544;-70
2021/11/24 01:00:07;;;;;;;12.18;6.38;;;;;;;3.16;72.47;99842.38;2619309;54;20037;-70
2021/11/24 01:02:37;;;;;;;10.35;6.43;;;;;;;3.22;72.47;99827.97;2618438;54;20063;-71
2021/11/24 01:05:07;;;;;;;10.38;6.55;;;;;;;3.34;72.08;99834.84;2618453;54;20034;-71
2021/11/24 01:07:40;;;;;;;10.60;7.18;;;;;;;3.42;72.11;99823.78;2618555;47;20046;-70
2021/11/24 01:10:11;;;;;;;13.95;6.40;;;;;;;3.51;72.09;99835.28;2619092;54;20034;-69
2021/11/24 01:12:44;;;;;;;10.68;6.10;;;;;;;3.54;71.84;99830.66;2619024;54;20081;-71
2021/11/24 01:15:14;;;;;;;9.00;6.63;;;;;;;3.52;71.85;99829.13;2622900;54;20044;-70
2021/11/24 01:17:44;;;;;;;9.88;7.25;;;;;;;3.31;71.63;99832.50;2623363;54;20027;-70
2021/11/24 01:20:14;;;;;;;12.18;7.50;;;;;;;3.13;71.78;99834.75;2619033;54;20046;-70
2021/11/24 01:22:47;;;;;;;13.68;7.07;;;;;;;2.98;71.81;99825.53;2618406;47;20069;-69
2021/11/24 01:25:17;;;;;;;9.98;6.88;;;;;;;2.89;72.44;99827.03;2618086;47;20122;-70
2021/11/24 01:27:46;;;;;;;11.20;7.38;;;;;;;2.84;72.50;99820.53;2619244;39;20402;-70
2021/11/24 01:30:16;;;;;;;11.48;7.32;;;;;;;2.84;73.20;99815.28;2621945;47;20030;-71
2021/11/24 01:32:46;;;;;;;7.82;6.53;;;;;;;2.88;73.44;99814.94;2625444;47;20026;-71
2021/11/24 01:35:16;;;;;;;10.57;7.40;;;;;;;3.00;73.31;99820.16;2623771;51;20034;-70
2021/11/24 01:37:49;;;;;;;9.90;6.78;;;;;;;3.11;72.67;99807.94;2622275;39;20449;-70
2021/11/24 01:40:20;;;;;;;14.13;7.97;;;;;;;3.21;73.03;99808.84;2621389;54;20037;-69
2021/11/24 01:42:50;;;;;;;11.88;6.78;;;;;;;3.34;72.85;99808.72;2621227;54;20038;-71
2021/11/24 01:45:23;;;;;;;10.13;6.47;;;;;;;3.42;73.21;99801.09;2621439;54;20041;-73
2021/11/24 01:47:54;;;;;;;12.55;7.15;;;;;;;3.44;73.02;99803.59;2621748;39;20573;-71
2021/11/24 01:50:23;;;;;;;12.93;7.43;;;;;;;3.38;72.36;99806.69;2618872;54;20034;-70
2021/11/24 01:52:56;;;;;;;9.15;6.28;;;;;;;3.34;72.61;99798.25;2618216;54;20027;-70
2021/11/24 01:55:26;;;;;;;9.93;7.10;;;;;;;3.35;73.12;99797.31;2618480;47;20069;-70
2021/11/24 01:57:56;;;;;;;10.27;6.55;;;;;;;3.39;73.27;99796.13;2619079;54;20057;-71
2021/11/24 02:00:29;;;;;;;10.40;6.57;;;;;;;3.52;72.99;99798.59;2618004;47;20030;-70
2021/11/24 02:02:58;;;;;;;10.07;6.57;;;;;;;3.64;73.07;99789.75;2618410;47;20030;-71
2021/11/24 02:05:28;;;;;;;9.95;7.03;;;;;;;3.63;72.83;99782.00;2618135;54;20034;-73
2021/11/24 02:08:00;;;;;;;13.90;8.38;;;;;;;3.52;72.38;99785.50;2618251;54;20555;-71
2021/11/24 02:10:30;;;;;;;14.82;8.38;;;;;;;3.45;72.53;99787.78;2620880;54;20023;-70
2021/11/24 02:13:00;;;;;;;13.98;7.85;;;;;;;3.37;73.05;99778.91;2621140;54;20030;-71
2021/11/24 02:15:30;;;;;;;12.43;7.97;;;;;;;3.38;73.14;99777.94;2620591;54;20029;-71
2021/11/24 02:18:04;;;;;;;11.93;7.72;;;;;;;3.44;72.97;99764.38;2620614;47;20037;-71
2021/11/24 02:20:42;;;;;;;12.00;6.97;;;;;;;3.43;73.33;99762.75;2621244;54;20027;-71
2021/11/24 02:23:13;;;;;;;11.68;7.00;;;;;;;3.46;73.71;99762.47;2621176;54;20038;-70
2021/11/24 02:25:45;;;;;;;9.68;7.03;;;;;;;3.54;73.71;99762.69;2621127;54;20042;-72
2021/11/24 02:28:16;;;;;;;8.43;6.15;;;;;;;3.66;73.44;99760.84;2621325;54;20121;-70
2021/11/24 02:30:45;;;;;;;10.27;6.32;;;;;;;3.72;73.33;99755.13;2621358;54;20560;-72
2021/11/24 02:33:15;;;;;;;9.00;6.30;;;;;;;3.77;72.81;99755.59;2621164;54;20592;-73
2021/11/24 02:35:48;;;;;;;9.07;6.65;;;;;;;3.73;73.06;99751.56;2619988;54;20068;-70
2021/11/24 02:38:18;;;;;;;12.50;6.85;;;;;;;3.75;73.15;99749.63;2618354;54;20038;-69
2021/11/24 02:40:48;;;;;;;12.52;7.00;;;;;;;3.74;73.26;99755.81;2618492;54;20034;-70
2021/11/24 02:43:18;;;;;;;11.75;6.70;;;;;;;3.68;73.54;99746.72;2623384;47;20041;-70
2021/11/24 02:45:47;;;;;;;12.18;7.15;;;;;;;3.64;73.58;99747.09;2623086;54;20041;-72
2021/11/24 02:48:22;;;;;;;9.23;5.68;;;;;;;3.64;73.71;99741.88;2623813;54;20049;-69
2021/11/24 02:50:55;;;;;;;12.55;6.55;;;;;;;3.68;74.05;99748.50;2623954;54;20073;-70
2021/11/24 02:53:27;;;;;;;11.75;6.80;;;;;;;3.70;73.93;99750.00;2620607;54;20050;-70
2021/11/24 02:55:57;;;;;;;14.15;6.43;;;;;;;3.77;74.20;99752.97;2618922;47;20037;-71
2021/11/24 02:58:28;;;;;;;9.50;6.18;;;;;;;3.79;74.13;99750.22;2624926;54;20030;-70
2021/11/24 03:01:00;;;;;;;11.98;6.55;;;;;;;3.80;74.08;99747.50;2624924;54;20030;-70
2021/11/24 03:03:30;;;;;;;9.45;6.38;;;;;;;3.81;74.18;99749.16;2625217;54;20018;-70
2021/11/24 03:06:02;;;;;;;12.57;6.93;;;;;;;3.85;74.30;99747.94;2624110;54;20576;-71
2021/11/24 03:08:32;;;;;;;12.85;6.80;;;;;;;3.90;73.80;99751.00;2624914;54;20030;-71
2021/11/24 03:11:02;;;;;;;10.70;6.68;;;;;;;3.89;74.23;99746.72;2625287;54;20031;-71
2021/11/24 03:13:32;;;;;;;7.28;5.80;;;;;;;3.98;74.14;99742.50;2623108;54;20554;-72
2021/11/24 03:16:02;;;;;;;11.90;6.72;;;;;;;4.12;73.72;99744.84;2625059;54;20034;-71
2021/11/24 03:18:32;;;;;;;9.98;6.40;;;;;;;4.10;73.63;99740.66;2624348;47;20037;-70
2021/11/24 03:21:04;;;;;;;15.13;6.85;;;;;;;4.04;73.62;99735.94;2624246;54;20034;-70
2021/11/24 03:23:34;;;;;;;12.15;7.28;;;;;;;4.04;73.78;99736.78;2620696;54;20294;-70
2021/11/24 03:26:03;;;;;;;9.68;6.97;;;;;;;4.08;74.00;99730.34;2620500;54;20034;-69
2021/11/24 03:28:33;;;;;;;9.75;6.70;;;;;;;4.07;73.83;99733.88;2621146;54;20034;-69
2021/11/24 03:31:02;;;;;;;9.98;6.63;;;;;;;4.04;73.66;99734.19;2621222;47;20530;-70
2021/11/24 03:33:32;;;;;;;9.48;6.20;;;;;;;4.05;73.83;99732.38;2620277;47;20073;-70
2021/11/24 03:36:05;;;;;;;9.45;6.10;;;;;;;4.06;74.06;99728.81;2622624;54;20542;-70
2021/11/24 03:38:35;;;;;;;10.60;6.20;;;;;;;4.04;73.90;99721.09;2620937;46;20038;-70
2021/11/24 03:41:05;;;;;;;11.73;6.90;;;;;;;4.05;73.54;99725.34;2620962;54;20026;-70
2021/11/24 03:43:34;;;;;;;9.63;6.65;;;;;;;3.98;73.77;99711.94;2620229;54;20542;-70
2021/11/24 03:46:04;;;;;;;10.55;6.65;;;;;;;3.94;73.84;99707.09;2618989;51;20034;-69
2021/11/24 03:48:34;;;;;;;8.23;6.00;;;;;;;3.92;74.02;99711.66;2619667;54;20042;-68
2021/11/24 03:51:06;;;;;;;12.25;6.22;;;;;;;3.95;74.53;99703.53;2621794;54;20041;-69
2021/11/24 03:53:40;;;;;;;9.70;6.93;;;;;;;3.97;74.52;99712.91;2626421;39;20532;-70
2021/11/24 03:56:10;;;;;;;9.95;6.47;;;;;;;3.96;74.51;99710.44;2625778;54;20026;-70
2021/11/24 03:58:40;;;;;;;14.23;6.65;;;;;;;3.95;74.36;99701.72;2623054;54;20038;-70
2021/11/24 04:01:10;;;;;;;10.60;6.43;;;;;;;3.93;74.42;99702.84;2619031;54;20081;-70
2021/11/24 04:03:40;;;;;;;11.45;6.35;;;;;;;3.99;74.75;99699.69;2617384;47;20042;-70
2021/11/24 04:06:13;;;;;;;8.13;5.88;;;;;;;3.98;74.49;99693.63;2618952;54;20041;-70
2021/11/24 04:08:42;;;;;;;9.85;6.13;;;;;;;3.93;74.21;99685.34;2619477;54;20077;-69
2021/11/24 04:11:12;;;;;;;13.15;7.22;;;;;;;3.91;74.29;99687.25;2618582;54;20568;-69
2021/11/24 04:13:41;;;;;;;10.27;6.25;;;;;;;3.86;74.72;99684.19;2620030;54;20038;-69
2021/11/24 04:16:11;;;;;;;9.73;5.90;;;;;;;3.90;74.77;99697.84;2619405;54;20570;-70
2021/11/24 04:18:41;;;;;;;9.60;5.85;;;;;;;3.89;75.14;99691.78;2619433;54;20041;-69
2021/11/24 04:21:13;;;;;;;11.18;6.30;;;;;;;3.93;74.69;99690.59;2618731;54;20827;-70
2021/11/24 04:23:43;;;;;;;13.98;6.60;;;;;;;3.95;74.88;99686.03;2618863;54;20030;-70
2021/11/24 04:26:12;;;;;;;7.93;5.97;;;;;;;3.97;74.80;99680.69;2619577;54;20561;-69
2021/11/24 04:28:42;;;;;;;10.82;6.25;;;;;;;4.02;75.04;99688.16;2619115;47;20073;-71
2021/11/24 04:31:12;;;;;;;8.50;6.05;;;;;;;4.06;74.66;99686.94;2619460;54;20129;-70
2021/11/24 04:33:42;;;;;;;10.38;6.10;;;;;;;4.06;74.60;99679.09;2619453;54;20027;-70
2021/11/24 04:36:14;;;;;;;9.40;6.25;;;;;;;4.09;74.31;99681.44;2619904;54;20034;-70
2021/11/24 04:38:44;;;;;;;10.27;6.07;;;;;;;4.06;74.47;99676.47;2621794;54;20034;-69
2021/11/24 04:41:14;;;;;;;10.27;7.00;;;;;;;4.06;74.17;99681.69;2627004;47;20030;-70
2021/11/24 04:43:45;;;;;;;10.70;7.25;;;;;;;4.03;74.49;99679.34;2627622;54;20026;-70
2021/11/24 04:46:16;;;;;;;9.63;6.32;;;;;;;4.00;74.45;99664.75;2627104;54;20033;-70
2021/11/24 04:48:46;;;;;;;30.77;15.77;;;;;;;4.06;74.99;99660.78;2626148;54;20041;-70
2021/11/24 04:51:18;;;;;;;21.00;12.90;;;;;;;4.08;74.40;99662.31;2626410;54;20037;-71
2021/11/24 04:53:54;;;;;;;11.10;7.50;;;;;;;4.06;73.99;99658.97;2628710;39;20313;-71
2021/11/24 04:56:24;;;;;;;13.68;8.52;;;;;;;4.03;73.91;99663.63;2627219;54;20058;-71
2021/11/24 04:58:55;;;;;;;15.25;9.77;;;;;;;4.02;74.25;99659.38;2626234;54;20026;-71
2021/11/24 05:01:25;;;;;;;14.35;7.95;;;;;;;4.00;74.37;99663.88;2624590;54;20046;-70
2021/11/24 05:03:55;;;;;;;14.60;8.88;;;;;;;4.02;74.60;99659.38;2619802;39;20396;-71
2021/11/24 05:06:27;;;;;;;9.13;7.35;;;;;;;4.05;74.71;99661.72;2621140;54;20039;-72
2021/11/24 05:08:57;;;;;;;12.88;7.70;;;;;;;4.04;74.30;99649.59;2626116;54;20106;-72
2021/11/24 05:11:27;;;;;;;9.43;7.57;;;;;;;4.12;74.69;99652.38;2626333;54;20034;-69
2021/11/24 05:13:59;;;;;;;10.82;8.18;;;;;;;4.11;74.20;99650.72;2627199;54;20043;-69
2021/11/24 05:16:30;;;;;;;9.75;8.05;;;;;;;4.13;74.32;99644.44;2626405;54;20035;-69
2021/11/24 05:19:01;;;;;;;9.32;7.10;;;;;;;4.13;74.23;99640.97;2620086;47;20790;-69
2021/11/24 05:21:35;;;;;;;11.38;7.30;;;;;;;4.12;74.39;99636.69;2619650;39;20474;-69
2021/11/24 05:24:05;;;;;;;10.68;8.00;;;;;;;4.15;74.52;99642.50;2619443;54;20037;-69
2021/11/24 05:26:37;;;;;;;12.35;8.20;;;;;;;4.18;74.73;99641.41;2617901;47;20648;-70
2021/11/24 05:29:07;;;;;;;11.88;8.32;;;;;;;4.16;74.44;99638.94;2619011;54;20049;-71
2021/11/24 05:31:36;;;;;;;13.88;8.00;;;;;;;4.17;74.38;99639.75;2625730;54;20554;-71
2021/11/24 05:34:06;;;;;;;11.90;8.07;;;;;;;4.16;74.32;99636.31;2626492;54;20027;-71
2021/11/24 05:36:39;;;;;;;13.65;8.77;;;;;;;4.14;74.47;99640.00;2625624;47;20034;-70
2021/11/24 05:39:10;;;;;;;14.40;9.35;;;;;;;4.14;74.82;99637.41;2619549;54;20834;-69
2021/11/24 05:41:41;;;;;;;11.75;8.15;;;;;;;4.14;74.47;99635.59;2619263;54;20069;-69
2021/11/24 05:44:20;;;;;;;8.80;6.60;;;;;;;4.11;74.45;99632.41;2618821;54;20097;-71
2021/11/24 05:46:54;;;;;;;13.45;7.68;;;;;;;4.09;74.64;99631.72;2618157;50;20565;-70
2021/11/24 05:49:24;;;;;;;12.07;7.63;;;;;;;4.05;74.76;99623.31;2618851;54;20026;-71
2021/11/24 05:51:58;;;;;;;8.95;7.07;;;;;;;4.09;74.76;99626.50;2618756;54;20045;-70
2021/11/24 05:54:27;;;;;;;10.32;7.60;;;;;;;4.08;74.47;99622.19;2618966;54;20054;-70
2021/11/24 05:56:57;;;;;;;10.38;7.47;;;;;;;4.05;74.88;99622.50;2619038;54;20037;-70
2021/11/24 05:59:29;;;;;;;11.95;7.03;;;;;;;4.08;74.83;99619.59;2618862;54;20030;-71
2021/11/24 06:01:59;;;;;;;10.55;6.90;;;;;;;4.09;74.41;99623.88;2618855;54;20030;-69
2021/11/24 06:04:28;;;;;;;10.18;6.70;;;;;;;4.08;74.47;99619.59;2619509;54;20047;-70
2021/11/24 06:07:02;;;;;;;9.07;7.07;;;;;;;4.05;74.79;99620.69;2621242;46;20034;-71
2021/11/24 06:09:31;;;;;;;8.15;6.82;;;;;;;4.07;74.93;99624.00;2621766;39;20407;-69
2021/11/24 06:12:01;;;;;;;9.82;7.00;;;;;;;4.11;74.79;99622.78;2621285;54;20043;-70
2021/11/24 06:14:31;;;;;;;10.25;6.72;;;;;;;4.13;74.62;99615.63;2618266;47;20038;-71
2021/11/24 06:17:00;;;;;;;10.13;7.70;;;;;;;4.11;74.92;99621.94;2619144;54;20082;-70
2021/11/24 06:19:30;;;;;;;9.15;7.05;;;;;;;4.08;74.84;99609.97;2618779;54;20031;-70
2021/11/24 06:22:02;;;;;;;14.75;7.45;;;;;;;4.09;74.81;99608.19;2619660;54;20026;-70
2021/11/24 06:24:32;;;;;;;9.85;7.15;;;;;;;4.09;75.28;99608.19;2620185;54;20030;-69
2021/11/24 06:27:01;;;;;;;10.13;6.43;;;;;;;4.12;74.99;99614.00;2620674;54;20039;-70
2021/11/24 06:29:31;;;;;;;10.77;6.85;;;;;;;4.07;75.06;99600.44;2624842;39;20449;-72
2021/11/24 06:32:01;;;;;;;7.47;6.00;;;;;;;4.09;74.89;99598.53;2622862;54;20192;-71
2021/11/24 06:34:30;;;;;;;9.65;6.25;;;;;;;4.14;75.16;99598.16;2620706;54;20030;-70
2021/11/24 06:37:02;;;;;;;15.00;6.88;;;;;;;4.12;75.19;99597.44;2619655;54;20051;-70
2021/11/24 06:39:32;;;;;;;9.65;7.22;;;;;;;4.11;74.68;99598.41;2617997;47;20556;-70
2021/11/24 06:42:02;;;;;;;8.90;6.63;;;;;;;4.12;75.19;99600.03;2618413;54;20039;-71
2021/11/24 06:44:31;;;;;;;10.52;6.82;;;;;;;4.11;74.92;99606.25;2618673;54;20039;-71
2021/11/24 06:47:01;;;;;;;9.25;7.13;;;;;;;4.08;74.81;99598.66;2618760;54;20027;-70
2021/11/24 06:49:31;;;;;;;10.52;7.25;;;;;;;4.06;75.06;99605.81;2618241;54;20062;-70
2021/11/24 06:52:03;;;;;;;9.70;6.82;;;;;;;4.06;75.40;99601.41;2618597;54;20031;-70
2021/11/24 06:54:33;;;;;;;8.65;6.50;;;;;;;4.09;75.57;99602.94;2618924;54;20130;-70
2021/11/24 06:57:03;;;;;;;10.65;6.63;;;;;;;4.15;75.29;99612.88;2618450;54;20026;-70
2021/11/24 06:59:33;;;;;;;14.80;6.88;;;;;;;4.19;75.39;99616.88;2618997;47;20027;-71
2021/11/24 07:02:02;;;;;;;13.05;6.88;;;;;;;4.26;75.42;99612.78;2618741;54;20034;-71
2021/11/24 07:04:32;;;;;;;11.07;7.32;;;;;;;4.29;75.04;99609.91;2619290;54;20538;-70
2021/11/24 07:07:05;;;;;;;10.80;8.70;;;;;;;4.27;74.85;99611.00;2619704;39;20437;-71
2021/11/24 07:09:35;;;;;;;9.57;6.75;;;;;;;4.23;74.76;99607.81;2619815;54;20038;-70
2021/11/24 07:12:05;;;;;;;7.38;6.38;;;;;;;4.24;74.91;99609.47;2619172;46;20053;-70
2021/11/24 07:14:36;;;;;;;8.77;6.40;;;;;;;4.24;74.43;99612.06;2619604;54;20022;-70
2021/11/24 07:17:06;;;;;;;7.68;5.78;;;;;;;4.22;74.68;99608.78;2619227;54;20074;-70
2021/11/24 07:19:36;;;;;;;16.30;6.93;;;;;;;4.24;74.85;99609.47;2618938;54;20031;-71
2021/11/24 07:22:08;;;;;;;14.65;10.55;;;;;;;4.26;74.62;99609.34;2619299;54;20035;-70
2021/11/24 07:24:38;;;;;;;10.07;6.55;;;;;;;4.27;74.70;99603.97;2619436;54;20034;-71
2021/11/24 07:27:08;;;;;;;8.32;7.05;;;;;;;4.28;74.87;99604.78;2618691;47;20030;-70
2021/11/24 07:29:38;;;;;;;10.85;6.13;;;;;;;4.29;74.46;99606.47;2619480;54;20026;-70
2021/11/24 07:32:09;;;;;;;9.75;5.65;;;;;;;4.30;74.80;99605.50;2618828;47;20022;-70
2021/11/24 07:34:39;;;;;;;7.05;6.15;;;;;;;4.30;74.50;99608.13;2619332;54;20625;-72
2021/11/24 07:37:11;;;;;;;7.45;5.85;;;;;;;4.33;74.36;99608.69;2619267;54;20589;-70
2021/11/24 07:39:41;;;;;;;8.85;6.82;;;;;;;4.36;74.31;99605.78;2619428;54;20772;-70
2021/11/24 07:42:11;;;;;;;10.98;6.22;;;;;;;4.40;74.73;99603.72;2619216;54;20018;-71
2021/11/24 07:44:40;;;;;;;15.10;6.18;;;;;;;4.41;74.17;99608.03;2619472;54;20030;-70
2021/11/24 07:47:12;;;;;;;9.75;5.85;;;;;;;4.41;74.10;99597.56;2619495;54;20041;-71
2021/11/24 07:49:41;;;;;;;6.75;5.28;;;;;;;4.43;73.80;99595.63;2619230;54;20221;-72
2021/11/24 07:52:14;;;;;;;8.98;6.05;;;;;;;4.43;73.91;99590.38;2618923;39;20445;-70
2021/11/24 07:54:43;;;;;;;10.30;6.35;;;;;;;4.46;74.15;99585.72;2619664;54;20022;-70
2021/11/24 07:57:13;;;;;;;9.82;6.07;;;;;;;4.50;73.78;99590.69;2619632;54;20030;-70
2021/11/24 07:59:43;;;;;;;9.30;4.97;;;;;;;4.53;73.64;99585.16;2619592;54;20030;-70
2021/11/24 08:02:12;;;;;;;7.43;5.93;;;;;;;4.57;73.43;99587.41;2619491;54;20558;-72
2021/11/24 08:04:43;;;;;;;14.75;10.35;;;;;;;4.67;73.26;99583.00;2619623;54;20038;-72
2021/11/24 08:07:16;;;;;;;7.15;5.88;;;;;;;4.74;72.99;99571.97;2618868;47;20027;-71
2021/11/24 08:09:45;;;;;;;7.60;5.90;;;;;;;4.78;72.74;99571.56;2619486;54;20035;-72
2021/11/24 08:12:35;;;;;;;9.07;6.60;;;;;;;4.84;72.75;99576.25;2619334;47;20075;-71
2021/11/24 08:15:06;;;;;;;7.45;5.80;;;;;;;4.90;72.09;99580.94;2622691;54;20019;-72
2021/11/24 08:17:36;;;;;;;6.35;5.00;;;;;;;4.95;71.76;99570.88;2629606;54;20030;-73
2021/11/24 08:20:07;;;;;;;7.20;5.53;;;;;;;4.99;71.90;99575.84;2629226;54;20031;-72
2021/11/24 08:22:40;;;;;;;5.43;4.93;;;;;;;5.02;71.54;99565.94;2628084;47;20065;-72
2021/11/24 08:25:10;;;;;;;5.57;4.80;;;;;;;5.05;70.79;99565.63;2629477;54;20031;-72
2021/11/24 08:27:40;;;;;;;6.68;4.63;;;;;;;5.03;70.83;99564.94;2628457;54;20019;-72
2021/11/24 08:30:11;;;;;;;5.85;4.53;;;;;;;5.01;71.21;99566.88;2629535;54;20026;-73
2021/11/24 08:32:41;;;;;;;6.10;5.00;;;;;;;5.08;70.80;99569.78;2626530;54;20037;-71
2021/11/24 08:35:11;;;;;;;5.78;3.72;;;;;;;5.08;70.18;99564.53;2621314;54;20026;-71
2021/11/24 08:37:43;;;;;;;6.30;4.47;;;;;;;5.09;69.85;99556.53;2620380;54;20046;-71
2021/11/24 08:40:14;;;;;;;4.25;3.72;;;;;;;5.15;70.18;99555.97;2620134;54;20035;-72
2021/11/24 08:42:44;;;;;;;6.40;4.72;;;;;;;5.23;70.05;99560.53;2619641;54;20030;-72
2021/11/24 08:45:14;;;;;;;5.07;3.40;;;;;;;5.26;68.91;99544.50;2620055;54;20038;-71
2021/11/24 08:47:45;;;;;;;5.60;4.38;;;;;;;5.26;68.99;99539.25;2619657;54;20039;-70
2021/11/24 08:50:17;;;;;;;5.75;4.53;;;;;;;5.29;69.13;99536.34;2619659;47;20026;-71
2021/11/24 08:52:50;;;;;;;5.78;3.53;;;;;;;5.37;68.09;99533.84;2619273;39;20121;-71
2021/11/24 08:55:21;;;;;;;4.40;3.53;;;;;;;5.35;68.22;99535.81;2619446;54;20066;-71
2021/11/24 08:57:51;;;;;;;7.15;3.25;;;;;;;5.34;68.00;99531.50;2622441;47;20557;-72
2021/11/24 09:00:24;;;;;;;5.15;3.45;;;;;;;5.38;67.61;99521.56;2621962;54;20026;-71
2021/11/24 09:03:00;;;;;;;2.33;2.13;;;;;;;5.34;66.55;99522.81;2621420;54;20106;-73
2021/11/24 09:05:30;;;;;;;2.33;2.13;;;;;;;5.31;65.48;99523.94;2622106;54;20089;-73
2021/11/24 09:08:03;;;;;;;2.90;2.60;;;;;;;5.26;65.70;99520.91;2621768;54;20034;-73
2021/11/24 09:10:33;;;;;;;3.40;3.10;;;;;;;5.29;66.25;99520.63;2621208;54;20045;-72
2021/11/24 09:13:04;;;;;;;3.10;2.80;;;;;;;5.33;65.84;99522.00;2621700;54;20568;-72
2021/11/24 09:15:33;;;;;;;2.85;2.58;;;;;;;5.38;65.94;99516.31;2623079;54;20026;-72
2021/11/24 09:18:15;;;;;;;3.42;2.90;;;;;;;5.47;66.44;99516.31;2621932;46;20064;-74
2021/11/24 09:20:46;;;;;;;3.35;2.38;;;;;;;5.54;65.00;99515.75;2621008;54;20038;-72
2021/11/24 09:23:21;;;;;;;4.65;2.72;;;;;;;5.49;64.41;99504.84;2620398;54;20033;-71
2021/11/24 09:25:54;;;;;;;4.25;2.90;;;;;;;5.46;64.43;99508.56;2621341;39;20505;-72
2021/11/24 09:28:29;;;;;;;2.28;2.05;;;;;;;5.46;64.75;99505.94;2620749;54;20593;-72
2021/11/24 09:31:00;;;;;;;3.38;2.30;;;;;;;5.53;65.13;99493.94;2619998;31;20500;-72
2021/11/24 09:33:30;;;;;;;3.70;2.53;;;;;;;5.65;65.01;99484.09;2619062;54;20069;-71
2021/11/24 09:35:59;;;;;;;2.38;2.15;;;;;;;5.76;64.15;99481.28;2619093;54;20045;-71
2021/11/24 09:38:32;;;;;;;4.78;2.50;;;;;;;5.83;64.32;99482.34;2618603;47;20030;-71
2021/11/24 09:41:07;;;;;;;2.38;2.17;;;;;;;5.94;63.59;99482.19;2619219;54;20561;-72
2021/11/24 09:43:40;;;;;;;3.67;2.60;;;;;;;5.95;63.63;99478.56;2626577;47;20033;-72
2021/11/24 09:46:11;;;;;;;2.35;2.15;;;;;;;6.10;63.67;99475.47;2629411;54;20087;-73
2021/11/24 09:48:43;;;;;;;2.58;2.20;;;;;;;6.24;63.46;99474.13;2628247;54;20046;-72
2021/11/24 09:51:14;;;;;;;2.90;2.15;;;;;;;6.31;62.99;99480.44;2628245;54;20034;-72
2021/11/24 09:53:48;;;;;;;3.00;2.38;;;;;;;6.39;62.51;99477.91;2627994;47;20050;-74
2021/11/24 09:56:19;;;;;;;2.75;2.50;;;;;;;6.40;62.21;99475.13;2627966;54;20057;-72
2021/11/24 09:59:04;;;;;;;2.78;2.15;;;;;;;6.39;61.38;99477.91;2628701;54;20071;-72
2021/11/24 10:01:33;;;;;;;2.55;2.30;;;;;;;6.51;60.83;99470.63;2629718;54;20031;-72
2021/11/24 10:04:03;;;;;;;3.22;2.30;;;;;;;6.42;60.67;99467.94;2627709;54;20026;-72
2021/11/24 10:06:33;;;;;;;2.20;2.00;;;;;;;6.33;60.33;99462.75;2627312;54;20031;-72
2021/11/24 10:09:08;;;;;;;2.53;2.03;;;;;;;6.27;61.18;99461.53;2624494;47;20038;-72
2021/11/24 10:11:39;;;;;;;8.45;2.70;;;;;;;6.34;61.17;99451.28;2620645;54;20037;-71
2021/11/24 10:14:09;;;;;;;2.85;2.58;;;;;;;6.43;61.25;99453.00;2619032;54;20042;-72
2021/11/24 10:16:39;;;;;;;2.92;2.10;;;;;;;6.49;60.50;99449.78;2618756;39;20442;-72
2021/11/24 10:19:11;;;;;;;2.53;2.33;;;;;;;6.59;60.69;99445.25;2617649;47;20045;-72
2021/11/24 10:21:59;;;;;;;6.00;2.88;;;;;;;6.73;60.46;99437.81;2618810;54;20097;-71
2021/11/24 10:24:36;;;;;;;5.03;2.50;;;;;;;6.70;59.69;99433.69;2617980;54;20038;-72
2021/11/24 10:27:07;;;;;;;2.55;1.80;;;;;;;6.59;59.09;99416.38;2619530;54;20036;-71
2021/11/24 10:29:58;;;;;;;2.72;2.00;;;;;;;6.51;59.22;99425.97;2619574;54;20038;-73
2021/11/24 10:32:30;;;;;;;2.30;2.15;;;;;;;6.42;59.09;99415.41;2619286;54;20042;-73
2021/11/24 10:35:00;;;;;;;2.22;2.00;;;;;;;6.30;59.13;99415.78;2618825;54;20038;-72
2021/11/24 10:37:30;;;;;;;3.60;2.35;;;;;;;6.23;59.85;99406.84;2618592;54;20033;-73
2021/11/24 10:40:08;;;;;;;3.53;2.30;;;;;;;6.32;59.03;99405.94;2618594;54;20042;-72
2021/11/24 10:42:40;;;;;;;2.20;2.00;;;;;;;6.24;59.27;99409.31;2618027;47;20039;-72
2021/11/24 10:45:13;;;;;;;3.78;2.45;;;;;;;6.17;59.41;99400.41;2619037;39;20454;-72
2021/11/24 10:47:51;;;;;;;3.72;2.70;;;;;;;6.38;59.38;99393.03;2618651;54;20030;-72
2021/11/24 10:50:23;;;;;;;5.25;2.88;;;;;;;6.55;58.03;99391.38;2618789;54;20569;-72
2021/11/24 10:53:07;;;;;;;2.88;2.28;;;;;;;6.62;58.36;99388.97;2617900;54;20034;-71
2021/11/24 10:55:39;;;;;;;3.95;2.70;;;;;;;6.68;57.83;99376.03;2618269;54;20027;-70
2021/11/24 10:58:15;;;;;;;6.18;2.72;;;;;;;6.77;57.61;99376.91;2618439;54;20055;-72
2021/11/24 11:00:48;;;;;;;3.38;2.70;;;;;;;6.87;57.90;99369.75;2618446;54;20033;-73
2021/11/24 11:03:37;;;;;;;3.33;2.60;;;;;;;6.99;57.58;99364.25;2618491;54;20034;-71
2021/11/24 11:06:07;;;;;;;3.10;2.28;;;;;;;7.00;57.14;99360.63;2619542;54;20061;-72
2021/11/24 11:08:37;;;;;;;3.97;2.33;;;;;;;6.96;56.35;99354.84;2624821;54;20034;-72
2021/11/24 11:11:31;;;;;;;2.50;2.15;;;;;;;6.88;56.41;99349.56;2625483;54;20035;-72
2021/11/24 11:14:25;;;;;;;3.25;2.50;;;;;;;6.78;56.90;99349.66;2625563;54;20030;-71
2021/11/24 11:16:58;;;;;;;3.83;2.50;;;;;;;6.82;57.02;99350.19;2619475;47;20035;-72
2021/11/24 11:19:39;;;;;;;;;;;;;;;6.81;56.91;99346.72;2619097;47;20026;-72
2021/11/24 11:22:11;;;;;;;3.08;2.50;;;;;;;6.75;56.41;99339.47;2619614;39;20374;-72
2021/11/24 11:24:42;;;;;;;2.85;2.28;;;;;;;6.66;56.64;99338.59;2620277;39;20526;-71
2021/11/24 11:27:14;;;;;;;3.88;2.53;;;;;;;6.70;56.87;99333.84;2619216;54;20035;-72
2021/11/24 11:29:46;;;;;;;3.05;2.55;;;;;;;6.69;56.94;99324.31;2623323;54;20030;-71
2021/11/24 11:32:16;;;;;;;2.72;2.35;;;;;;;6.60;57.09;99310.28;2623429;54;20038;-72
2021/11/24 11:34:46;;;;;;;2.65;2.03;;;;;;;6.61;57.11;99311.97;2619745;54;20031;-72
2021/11/24 11:37:18;;;;;;;2.60;2.30;;;;;;;6.61;57.05;99309.34;2616885;54;20037;-72
2021/11/24 11:39:49;;;;;;;2.80;2.13;;;;;;;6.57;57.30;99300.13;2617788;47;20034;-72
2021/11/24 11:42:24;;;;;;;2.10;1.90;;;;;;;6.47;57.08;99294.13;2617217;54;20046;-72
2021/11/24 11:45:17;;;;;;;2.13;1.85;;;;;;;6.50;57.52;99290.38;2618146;39;20423;-72
2021/11/24 11:47:51;;;;;;;3.47;2.17;;;;;;;6.52;57.20;99281.34;2617855;47;20035;-72
2021/11/24 11:50:50;;;;;;;4.32;2.53;;;;;;;6.55;57.34;99280.22;2617799;54;20034;-73
2021/11/24 11:53:23;;;;;;;2.45;2.15;;;;;;;6.55;57.99;99270.53;2617813;54;20035;-74
2021/11/24 11:56:12;;;;;;;12.68;3.67;;;;;;;6.60;57.31;99265.63;2617905;47;20038;-72
2021/11/24 11:58:56;;;;;;;3.85;2.28;;;;;;;6.59;57.73;99263.19;2617780;54;20065;-72
2021/11/24 12:01:29;;;;;;;2.72;2.03;;;;;;;6.59;57.37;99261.38;2617923;54;20038;-71